• Join FlightAware (Why Join?)
  • Login
  • US Flag 
08:56AM EDT


 

Airport Tracker/Info


-or-


 

Live Flight TrackerFlight Track Log ✈ N830QS ✈ 10-Oct-2013 ✈ KMIA - KTPA

Flight Track Log - Related Links

Times and Time Zones

All times are in EDT time to prevent confusion due to time zone crossing. See the N830QS flight status page for this flight to view local times or setup timezone preferences in your user account.

Time Position Orientation Groundspeed Altitude Reporting Facility
EDT Latitude Longitude Course Direction KTS MPH feet Rate Location/Type
01:07PM 25.8003 -80.2744 85° East 189 217 800  Level Miami Center
01:09PM 25.8092 -80.1639 85° East 251 289 5,800 3,840 Climbing Miami Center
01:10PM 25.8256 -80.0814 78° East 269 310 10,000 4,020 Climbing Miami Center
01:11PM 25.8833 -80.1061 339° North 158 182 13,900 3,300 Climbing Miami Center
01:12PM 25.9278 -80.1767 305° West 173 199 16,700 2,460 Climbing Miami Center
01:13PM 25.9847 -80.2475 312° West 239 275 18,900 1,620 Climbing Miami Center
01:14PM 26.0475 -80.3256 312° West 299 344 20,000 540 Climbing Miami Center
01:15PM 26.1206 -80.4156 312° West 353 406 20,000  Level Miami Center
01:16PM 26.1894 -80.5056 310° West 378 435 20,000  Level Miami Center
01:17PM 26.2606 -80.5889 314° West 378 435 20,000  Level Miami Center
01:18PM 26.3442 -80.6586 323° Northwest 373 429 20,000  Level Miami Center
01:19PM 26.4322 -80.7311 324° Northwest 385 443 20,000  Level Miami Center
01:20PM 26.5078 -80.7961 322° Northwest 385 443 20,000  Level Miami Center
01:21PM 26.5764 -80.8844 311° West 373 429 20,000  Level Miami Center
01:22PM 26.6486 -80.9892 308° West 384 442 20,000  Level Miami Center
01:23PM 26.7028 -81.0656 308° West 384 442 20,000  Level Miami Center
01:24PM 26.7689 -81.1561 309° West 389 448 20,000  Level Miami Center
01:25PM 26.8411 -81.2589 308° West 383 441 20,000  Level Miami Center
01:26PM 26.9069 -81.3544 308° West 383 441 20,000  Level Miami Center
01:27PM 26.9811 -81.4575 309° West 383 441 20,000 -240 Level Miami Center
01:28PM 27.0469 -81.5511 308° West 383 441 19,600 -1,020 Descending Miami Center
01:29PM 27.1047 -81.6350 308° West 378 435 18,000 -2,280 Descending Miami Center
01:30PM 27.1664 -81.7239 308° West 378 435 15,100 -2,340 Descending Miami Center
01:31PM 27.2261 -81.8081 309° West 365 420 13,400 -1,260 Descending Miami Center
01:32PM 27.2858 -81.8925 309° West 353 406 12,600 -660 Descending Miami Center
01:33PM 27.3436 -81.9769 308° West 348 400 12,100 -600 Descending Miami Center
01:34PM 27.4011 -82.0589 308° West 343 395 11,500 -600 Descending Miami Center
01:35PM 27.4525 -82.1336 308° West 336 387 11,000 -300 Descending Miami Center
01:36PM 27.5106 -82.2067 312° West 307 353 11,000 -480 Level Miami Center
01:37PM 27.5664 -82.2700 315° West 286 329 10,100 -1,320 Descending Miami Center
01:38PM 27.6203 -82.3381 312° West 281 323 8,400 -1,740 Descending Miami Center
01:39PM 27.6667 -82.3833 319° Northwest 276 318 7,100 -1,860 Descending Tampa TRACON
01:40PM 27.7333 -82.4500 318° Northwest 281 323 4,900 -2,040 Descending Tampa TRACON
01:41PM 27.7833 -82.4833 329° Northwest 256 295 3,100 -1,320 Descending Tampa TRACON
01:42PM 27.8333 -82.5167 329° Northwest 216 249 2,600 -360 Descending Tampa TRACON
01:43PM 27.8833 -82.5333 344° North 160 184 2,500 -720 Descending Tampa TRACON
01:44PM 27.9167 -82.5333 360° North 143 165 1,200 -1,200 Descending Tampa TRACON
01:45PM 27.9500 -82.5333 360° North 125 144 200 -1,020 Descending Tampa TRACON
01:47PM 27.9755 -82.5332 25° Northeast  Level Estimated
01:54PM 27.9755 -82.5332 190° South  Level Estimated